QFA411 YSSY-YSCB
Flight info
| Callsign | QFA411 |
|---|---|
| Flight time | 0h 34m |
| Altitude | 20000 |
| Route | MARUB7/34R WOL H65 CB |
| Aircraft | B738/M-SDE2E3FGHIRWXY/LB1 |
Departure
| Time | 2026-05-06 10:56 |
|---|---|
| Airport | Sydney Kingsford Smith International Airport (YSSY) |
Arrival
| Time | 2026-05-06 11:31 |
|---|---|
| Airport | Canberra Airport (YSCB) |
| Time | Latitude | Longitude | Altitude | Speed | Heading |
|---|---|---|---|---|---|
| 2026-05-06 09:07 | -33.93141 | 151.17802 | 29 ft | 0 kts | 191° |
| 2026-05-06 10:33 | -33.93138 | 151.17802 | 29 ft | 6 kts | 191° |
| 2026-05-06 10:36 | -33.93135 | 151.17803 | 29 ft | 2 kts | 191° |
| 2026-05-06 10:36 | -33.93117 | 151.17808 | 29 ft | 3 kts | 193° |
| 2026-05-06 10:36 | -33.93097 | 151.17814 | 29 ft | 3 kts | 199° |
| 2026-05-06 10:37 | -33.93079 | 151.17823 | 29 ft | 3 kts | 218° |
| 2026-05-06 10:37 | -33.93069 | 151.17838 | 29 ft | 3 kts | 264° |
| 2026-05-06 10:37 | -33.93068 | 151.17845 | 29 ft | 0 kts | 280° |
| 2026-05-06 10:40 | -33.93067 | 151.17837 | 29 ft | 2 kts | 280° |
| 2026-05-06 10:41 | -33.93064 | 151.17818 | 29 ft | 3 kts | 280° |
| 2026-05-06 10:41 | -33.93060 | 151.17788 | 29 ft | 4 kts | 280° |
| 2026-05-06 10:41 | -33.93048 | 151.17742 | 29 ft | 7 kts | 294° |
| 2026-05-06 10:41 | -33.93021 | 151.17666 | 29 ft | 13 kts | 288° |
| 2026-05-06 10:42 | -33.93021 | 151.17551 | 29 ft | 15 kts | 231° |
| 2026-05-06 10:42 | -33.93035 | 151.17538 | 29 ft | 0 kts | 212° |
| 2026-05-06 10:42 | -33.93035 | 151.17537 | 29 ft | 0 kts | 211° |
| 2026-05-06 10:42 | -33.93041 | 151.17533 | 29 ft | 5 kts | 214° |
| 2026-05-06 10:43 | -33.93081 | 151.17458 | 29 ft | 13 kts | 234° |
| 2026-05-06 10:43 | -33.93168 | 151.17448 | 29 ft | 14 kts | 168° |
| 2026-05-06 10:43 | -33.93267 | 151.17475 | 29 ft | 16 kts | 166° |
| 2026-05-06 10:44 | -33.93417 | 151.17591 | 29 ft | 11 kts | 183° |
| 2026-05-06 10:44 | -33.93508 | 151.17590 | 29 ft | 16 kts | 170° |
| 2026-05-06 10:44 | -33.93626 | 151.17626 | 29 ft | 18 kts | 159° |
| 2026-05-06 10:44 | -33.93738 | 151.17684 | 29 ft | 17 kts | 165° |
| 2026-05-06 10:45 | -33.93846 | 151.17735 | 29 ft | 17 kts | 126° |
| 2026-05-06 10:45 | -33.93951 | 151.17793 | 28 ft | 17 kts | 167° |
| 2026-05-06 10:45 | -33.94067 | 151.17824 | 28 ft | 17 kts | 168° |
| 2026-05-06 10:45 | -33.94183 | 151.17853 | 29 ft | 17 kts | 168° |
| 2026-05-06 10:46 | -33.94297 | 151.17882 | 29 ft | 17 kts | 168° |
| 2026-05-06 10:46 | -33.94419 | 151.17911 | 29 ft | 18 kts | 177° |
| 2026-05-06 10:46 | -33.94539 | 151.17886 | 29 ft | 18 kts | 169° |
| 2026-05-06 10:46 | -33.94658 | 151.17917 | 29 ft | 18 kts | 168° |
| 2026-05-06 10:47 | -33.94778 | 151.17948 | 29 ft | 18 kts | 168° |
| 2026-05-06 10:47 | -33.94901 | 151.17980 | 29 ft | 18 kts | 168° |
| 2026-05-06 10:47 | -33.95026 | 151.18013 | 29 ft | 18 kts | 168° |
| 2026-05-06 10:47 | -33.95102 | 151.18065 | 29 ft | 9 kts | 111° |
| 2026-05-06 10:48 | -33.95093 | 151.18141 | 29 ft | 10 kts | 78° |
| 2026-05-06 10:48 | -33.95077 | 151.18233 | 29 ft | 13 kts | 78° |
| 2026-05-06 10:48 | -33.95056 | 151.18352 | 29 ft | 16 kts | 78° |
| 2026-05-06 10:48 | -33.95053 | 151.18486 | 29 ft | 17 kts | 126° |
| 2026-05-06 10:49 | -33.95143 | 151.18574 | 29 ft | 17 kts | 137° |
| 2026-05-06 10:49 | -33.95231 | 151.18669 | 29 ft | 17 kts | 143° |
| 2026-05-06 10:49 | -33.95341 | 151.18726 | 29 ft | 17 kts | 167° |
| 2026-05-06 10:49 | -33.95458 | 151.18757 | 29 ft | 17 kts | 168° |
| 2026-05-06 10:50 | -33.95572 | 151.18786 | 29 ft | 16 kts | 168° |
| 2026-05-06 10:50 | -33.95680 | 151.18814 | 29 ft | 16 kts | 167° |
| 2026-05-06 10:50 | -33.95786 | 151.18842 | 29 ft | 16 kts | 167° |
| 2026-05-06 10:50 | -33.95895 | 151.18870 | 29 ft | 16 kts | 168° |
| 2026-05-06 10:51 | -33.96009 | 151.18900 | 29 ft | 17 kts | 167° |
| 2026-05-06 10:51 | -33.96127 | 151.18930 | 29 ft | 17 kts | 168° |
| 2026-05-06 10:51 | -33.96241 | 151.18959 | 29 ft | 17 kts | 167° |
| 2026-05-06 10:51 | -33.96357 | 151.18991 | 29 ft | 18 kts | 167° |
| 2026-05-06 10:52 | -33.96480 | 151.19022 | 29 ft | 19 kts | 168° |
| 2026-05-06 10:52 | -33.96610 | 151.19055 | 29 ft | 19 kts | 168° |
| 2026-05-06 10:52 | -33.96741 | 151.19071 | 29 ft | 19 kts | 189° |
| 2026-05-06 10:52 | -33.96869 | 151.19078 | 29 ft | 18 kts | 167° |
| 2026-05-06 10:53 | -33.96990 | 151.19109 | 29 ft | 17 kts | 168° |
| 2026-05-06 10:53 | -33.97069 | 151.19129 | 29 ft | 18 kts | 167° |
| 2026-05-06 10:53 | -33.97110 | 151.19285 | 27 ft | 19 kts | 77° |
| 2026-05-06 10:53 | -33.97044 | 151.19368 | 26 ft | 8 kts | 348° |
| 2026-05-06 10:54 | -33.97035 | 151.19366 | 26 ft | 0 kts | 348° |
| 2026-05-06 10:54 | -33.97031 | 151.19365 | 24 ft | 0 kts | 348° |
| 2026-05-06 10:54 | -33.97029 | 151.19364 | 24 ft | 0 kts | 348° |
| 2026-05-06 10:55 | -33.97027 | 151.19364 | 24 ft | 4 kts | 348° |
| 2026-05-06 10:56 | -33.96768 | 151.19297 | 22 ft | 77 kts | 348° |
| 2026-05-06 10:56 | -33.96006 | 151.19098 | 30 ft | 144 kts | 347° |
| 2026-05-06 10:56 | -33.94958 | 151.18825 | 548 ft | 157 kts | 348° |
| 2026-05-06 10:56 | -33.93849 | 151.19006 | 1031 ft | 176 kts | 34° |
| 2026-05-06 10:57 | -33.93127 | 151.20143 | 1808 ft | 170 kts | 77° |
| 2026-05-06 10:57 | -33.93163 | 151.21500 | 2496 ft | 168 kts | 115° |
| 2026-05-06 10:57 | -33.93720 | 151.22753 | 3200 ft | 165 kts | 121° |
| 2026-05-06 10:57 | -33.94002 | 151.24138 | 3722 ft | 185 kts | 90° |
| 2026-05-06 10:58 | -33.93922 | 151.25801 | 3968 ft | 211 kts | 89° |
| 2026-05-06 10:58 | -33.93846 | 151.27647 | 4148 ft | 231 kts | 89° |
| 2026-05-06 10:58 | -33.93770 | 151.29654 | 4435 ft | 244 kts | 89° |
| 2026-05-06 10:58 | -33.93929 | 151.31706 | 4786 ft | 253 kts | 114° |
| 2026-05-06 10:59 | -33.95052 | 151.33344 | 5083 ft | 263 kts | 150° |
| 2026-05-06 10:59 | -33.96755 | 151.33981 | 5773 ft | 263 kts | 179° |
| 2026-05-06 10:59 | -33.98563 | 151.33603 | 6478 ft | 268 kts | 204° |
| 2026-05-06 10:59 | -34.00171 | 151.32450 | 7253 ft | 268 kts | 217° |
| 2026-05-06 11:00 | -34.01678 | 151.31039 | 8026 ft | 273 kts | 220° |
| 2026-05-06 11:00 | -34.03162 | 151.29577 | 8824 ft | 277 kts | 220° |
| 2026-05-06 11:00 | -34.04656 | 151.28101 | 9661 ft | 280 kts | 220° |
| 2026-05-06 11:00 | -34.06184 | 151.26604 | 10396 ft | 287 kts | 220° |
| 2026-05-06 11:01 | -34.07802 | 151.25030 | 10656 ft | 311 kts | 219° |
| 2026-05-06 11:01 | -34.09559 | 151.23335 | 10884 ft | 334 kts | 219° |
| 2026-05-06 11:01 | -34.11401 | 151.21569 | 11467 ft | 342 kts | 219° |
| 2026-05-06 11:01 | -34.13262 | 151.19791 | 12184 ft | 346 kts | 219° |
| 2026-05-06 11:02 | -34.15185 | 151.17958 | 13011 ft | 349 kts | 219° |
| 2026-05-06 11:02 | -34.17074 | 151.16158 | 13760 ft | 354 kts | 219° |
| 2026-05-06 11:02 | -34.19025 | 151.14301 | 14479 ft | 358 kts | 219° |
| 2026-05-06 11:02 | -34.20994 | 151.12426 | 15232 ft | 362 kts | 219° |
| 2026-05-06 11:03 | -34.22978 | 151.10536 | 16023 ft | 364 kts | 220° |
| 2026-05-06 11:03 | -34.25003 | 151.08606 | 16766 ft | 368 kts | 220° |
| 2026-05-06 11:03 | -34.27001 | 151.06701 | 17487 ft | 372 kts | 220° |
| 2026-05-06 11:03 | -34.29042 | 151.04753 | 18236 ft | 376 kts | 220° |
| 2026-05-06 11:04 | -34.31105 | 151.02782 | 18889 ft | 380 kts | 220° |
| 2026-05-06 11:04 | -34.33189 | 151.00790 | 19501 ft | 384 kts | 220° |
| 2026-05-06 11:04 | -34.35300 | 150.98772 | 20012 ft | 389 kts | 220° |
| 2026-05-06 11:04 | -34.37419 | 150.96745 | 20042 ft | 387 kts | 220° |
| 2026-05-06 11:05 | -34.39532 | 150.94723 | 20059 ft | 387 kts | 220° |
| 2026-05-06 11:05 | -34.41651 | 150.92694 | 20071 ft | 388 kts | 220° |
| 2026-05-06 11:05 | -34.43765 | 150.90667 | 20071 ft | 388 kts | 220° |
| 2026-05-06 11:05 | -34.45879 | 150.88639 | 20071 ft | 388 kts | 220° |
| 2026-05-06 11:06 | -34.47980 | 150.86621 | 20069 ft | 388 kts | 220° |
| 2026-05-06 11:06 | -34.50107 | 150.84579 | 20069 ft | 388 kts | 220° |
| 2026-05-06 11:06 | -34.52191 | 150.82575 | 20063 ft | 388 kts | 220° |
| 2026-05-06 11:06 | -34.54273 | 150.80573 | 20065 ft | 387 kts | 221° |
| 2026-05-06 11:07 | -34.56233 | 150.78376 | 20059 ft | 384 kts | 230° |
| 2026-05-06 11:07 | -34.57890 | 150.75820 | 20076 ft | 382 kts | 236° |
| 2026-05-06 11:07 | -34.59457 | 150.73202 | 20075 ft | 382 kts | 236° |
| 2026-05-06 11:07 | -34.61008 | 150.70583 | 20069 ft | 382 kts | 236° |
| 2026-05-06 11:08 | -34.62563 | 150.67962 | 20083 ft | 382 kts | 236° |
| 2026-05-06 11:08 | -34.64102 | 150.65378 | 20073 ft | 382 kts | 236° |
| 2026-05-06 11:08 | -34.65664 | 150.62764 | 20071 ft | 382 kts | 236° |
| 2026-05-06 11:08 | -34.67228 | 150.60153 | 20083 ft | 382 kts | 236° |
| 2026-05-06 11:09 | -34.68795 | 150.57541 | 20071 ft | 382 kts | 236° |
| 2026-05-06 11:09 | -34.70361 | 150.54932 | 20086 ft | 382 kts | 236° |
| 2026-05-06 11:09 | -34.71927 | 150.52322 | 20076 ft | 382 kts | 236° |
| 2026-05-06 11:09 | -34.73490 | 150.49716 | 20076 ft | 382 kts | 236° |
| 2026-05-06 11:10 | -34.75055 | 150.47103 | 20087 ft | 381 kts | 236° |
| 2026-05-06 11:10 | -34.76614 | 150.44499 | 20084 ft | 381 kts | 236° |
| 2026-05-06 11:10 | -34.78176 | 150.41889 | 20081 ft | 381 kts | 236° |
| 2026-05-06 11:10 | -34.79733 | 150.39284 | 20081 ft | 381 kts | 236° |
| 2026-05-06 11:11 | -34.81291 | 150.36677 | 20091 ft | 381 kts | 236° |
| 2026-05-06 11:11 | -34.82847 | 150.34069 | 20089 ft | 381 kts | 236° |
| 2026-05-06 11:11 | -34.84406 | 150.31457 | 20084 ft | 381 kts | 236° |
| 2026-05-06 11:11 | -34.85959 | 150.28850 | 20088 ft | 381 kts | 236° |
| 2026-05-06 11:12 | -34.87514 | 150.26240 | 20096 ft | 381 kts | 236° |
| 2026-05-06 11:12 | -34.89069 | 150.23627 | 20092 ft | 381 kts | 236° |
| 2026-05-06 11:12 | -34.90623 | 150.21015 | 20097 ft | 381 kts | 236° |
| 2026-05-06 11:12 | -34.92176 | 150.18401 | 20098 ft | 381 kts | 236° |
| 2026-05-06 11:13 | -34.93729 | 150.15786 | 20097 ft | 381 kts | 236° |
| 2026-05-06 11:13 | -34.95259 | 150.13209 | 20092 ft | 377 kts | 236° |
| 2026-05-06 11:13 | -34.96770 | 150.10663 | 20081 ft | 364 kts | 236° |
| 2026-05-06 11:13 | -34.98238 | 150.08187 | 20091 ft | 359 kts | 236° |
| 2026-05-06 11:14 | -34.99699 | 150.05718 | 20091 ft | 359 kts | 236° |
| 2026-05-06 11:14 | -35.01161 | 150.03245 | 20035 ft | 360 kts | 236° |
| 2026-05-06 11:14 | -35.02626 | 150.00767 | 19708 ft | 358 kts | 236° |
| 2026-05-06 11:14 | -35.04080 | 149.98308 | 19283 ft | 356 kts | 236° |
| 2026-05-06 11:15 | -35.05534 | 149.95872 | 18858 ft | 353 kts | 233° |
| 2026-05-06 11:15 | -35.07143 | 149.93608 | 18389 ft | 353 kts | 229° |
| 2026-05-06 11:15 | -35.08845 | 149.91456 | 17879 ft | 351 kts | 227° |
| 2026-05-06 11:15 | -35.10548 | 149.89340 | 17404 ft | 348 kts | 227° |
| 2026-05-06 11:16 | -35.12231 | 149.87227 | 16939 ft | 345 kts | 227° |
| 2026-05-06 11:16 | -35.13892 | 149.85112 | 16486 ft | 342 kts | 228° |
| 2026-05-06 11:16 | -35.15525 | 149.83010 | 16042 ft | 340 kts | 228° |
| 2026-05-06 11:16 | -35.17143 | 149.80919 | 15609 ft | 337 kts | 228° |
| 2026-05-06 11:17 | -35.18747 | 149.78843 | 15164 ft | 335 kts | 227° |
| 2026-05-06 11:17 | -35.20351 | 149.76767 | 14703 ft | 334 kts | 228° |
| 2026-05-06 11:17 | -35.21924 | 149.74730 | 14276 ft | 333 kts | 227° |
| 2026-05-06 11:17 | -35.23513 | 149.72671 | 13831 ft | 331 kts | 227° |
| 2026-05-06 11:18 | -35.25088 | 149.70629 | 13360 ft | 330 kts | 227° |
| 2026-05-06 11:18 | -35.26660 | 149.68589 | 12903 ft | 327 kts | 227° |
| 2026-05-06 11:18 | -35.28218 | 149.66567 | 12465 ft | 325 kts | 227° |
| 2026-05-06 11:18 | -35.29762 | 149.64562 | 12043 ft | 322 kts | 227° |
| 2026-05-06 11:19 | -35.31296 | 149.62569 | 11627 ft | 320 kts | 227° |
| 2026-05-06 11:19 | -35.32819 | 149.60589 | 11213 ft | 318 kts | 227° |
| 2026-05-06 11:19 | -35.34332 | 149.58621 | 10798 ft | 317 kts | 227° |
| 2026-05-06 11:19 | -35.35824 | 149.56679 | 10606 ft | 308 kts | 227° |
| 2026-05-06 11:20 | -35.37267 | 149.54800 | 10435 ft | 299 kts | 227° |
| 2026-05-06 11:20 | -35.38679 | 149.52961 | 10239 ft | 291 kts | 227° |
| 2026-05-06 11:20 | -35.40030 | 149.51199 | 10110 ft | 283 kts | 227° |
| 2026-05-06 11:20 | -35.41357 | 149.49467 | 9926 ft | 276 kts | 227° |
| 2026-05-06 11:21 | -35.42672 | 149.47751 | 9602 ft | 275 kts | 227° |
| 2026-05-06 11:21 | -35.43977 | 149.46047 | 9297 ft | 273 kts | 227° |
| 2026-05-06 11:21 | -35.45274 | 149.44353 | 9006 ft | 271 kts | 227° |
| 2026-05-06 11:21 | -35.46564 | 149.42667 | 8704 ft | 270 kts | 227° |
| 2026-05-06 11:22 | -35.47844 | 149.40992 | 8413 ft | 268 kts | 227° |
| 2026-05-06 11:22 | -35.49117 | 149.39327 | 8122 ft | 267 kts | 227° |
| 2026-05-06 11:22 | -35.50386 | 149.37666 | 7831 ft | 266 kts | 227° |
| 2026-05-06 11:22 | -35.51647 | 149.36015 | 7540 ft | 264 kts | 227° |
| 2026-05-06 11:23 | -35.52904 | 149.34368 | 7253 ft | 264 kts | 227° |
| 2026-05-06 11:23 | -35.54152 | 149.32731 | 7012 ft | 261 kts | 227° |
| 2026-05-06 11:23 | -35.55172 | 149.30952 | 6882 ft | 252 kts | 249° |
| 2026-05-06 11:23 | -35.55591 | 149.28901 | 6774 ft | 244 kts | 261° |
| 2026-05-06 11:24 | -35.55819 | 149.26871 | 6679 ft | 235 kts | 262° |
| 2026-05-06 11:24 | -35.56020 | 149.24962 | 6602 ft | 221 kts | 262° |
| 2026-05-06 11:24 | -35.56173 | 149.23142 | 6487 ft | 208 kts | 272° |
| 2026-05-06 11:24 | -35.55740 | 149.21531 | 6341 ft | 196 kts | 302° |
| 2026-05-06 11:25 | -35.54787 | 149.20401 | 6165 ft | 187 kts | 328° |
| 2026-05-06 11:25 | -35.53628 | 149.19764 | 5971 ft | 180 kts | 346° |
| 2026-05-06 11:25 | -35.52452 | 149.19582 | 5801 ft | 173 kts | 353° |
| 2026-05-06 11:25 | -35.51275 | 149.19488 | 5608 ft | 167 kts | 356° |
| 2026-05-06 11:26 | -35.50100 | 149.19458 | 5477 ft | 171 kts | 358° |
| 2026-05-06 11:26 | -35.48904 | 149.19450 | 5286 ft | 172 kts | 358° |
| 2026-05-06 11:26 | -35.47729 | 149.19448 | 5060 ft | 167 kts | 359° |
| 2026-05-06 11:26 | -35.46581 | 149.19448 | 4845 ft | 164 kts | 359° |
| 2026-05-06 11:27 | -35.45441 | 149.19448 | 4619 ft | 164 kts | 359° |
| 2026-05-06 11:27 | -35.44346 | 149.19448 | 4403 ft | 155 kts | 358° |
| 2026-05-06 11:27 | -35.43290 | 149.19449 | 4153 ft | 149 kts | 358° |
| 2026-05-06 11:27 | -35.42254 | 149.19453 | 3874 ft | 147 kts | 359° |
| 2026-05-06 11:28 | -35.41238 | 149.19470 | 3722 ft | 148 kts | 359° |
| 2026-05-06 11:28 | -35.40200 | 149.19457 | 3545 ft | 149 kts | 356° |
| 2026-05-06 11:28 | -35.39169 | 149.19435 | 3379 ft | 147 kts | 358° |
| 2026-05-06 11:28 | -35.38151 | 149.19450 | 3228 ft | 146 kts | 359° |
| 2026-05-06 11:29 | -35.37138 | 149.19452 | 3041 ft | 145 kts | 358° |
| 2026-05-06 11:29 | -35.36135 | 149.19445 | 2850 ft | 143 kts | 359° |
| 2026-05-06 11:29 | -35.35154 | 149.19439 | 2655 ft | 139 kts | 0° |
| 2026-05-06 11:29 | -35.34196 | 149.19451 | 2450 ft | 136 kts | 1° |
| 2026-05-06 11:30 | -35.33252 | 149.19448 | 2293 ft | 136 kts | 360° |
| 2026-05-06 11:30 | -35.32312 | 149.19446 | 2089 ft | 133 kts | 360° |
| 2026-05-06 11:30 | -35.31390 | 149.19443 | 1901 ft | 131 kts | 360° |
| 2026-05-06 11:30 | -35.30482 | 149.19443 | 1879 ft | 127 kts | 360° |
| 2026-05-06 11:31 | -35.29792 | 149.19443 | 1879 ft | 68 kts | 360° |
| 2026-05-06 11:31 | -35.29591 | 149.19496 | 1876 ft | 17 kts | 88° |
| 2026-05-06 11:31 | -35.29652 | 149.19594 | 1879 ft | 16 kts | 175° |
| 2026-05-06 11:31 | -35.29767 | 149.19594 | 1879 ft | 17 kts | 180° |
| 2026-05-06 11:32 | -35.29881 | 149.19594 | 1879 ft | 16 kts | 180° |
| 2026-05-06 11:32 | -35.29991 | 149.19594 | 1879 ft | 16 kts | 180° |
| 2026-05-06 11:32 | -35.30097 | 149.19594 | 1879 ft | 15 kts | 180° |
| 2026-05-06 11:32 | -35.30196 | 149.19594 | 1877 ft | 13 kts | 181° |
| 2026-05-06 11:33 | -35.30220 | 149.19524 | 1879 ft | 11 kts | 289° |
| 2026-05-06 11:33 | -35.30194 | 149.19439 | 1879 ft | 11 kts | 291° |
| 2026-05-06 11:33 | -35.30166 | 149.19348 | 1879 ft | 12 kts | 290° |
| 2026-05-06 11:33 | -35.30175 | 149.19249 | 1877 ft | 13 kts | 219° |
| 2026-05-06 11:34 | -35.30263 | 149.19238 | 1879 ft | 14 kts | 179° |
| 2026-05-06 11:34 | -35.30362 | 149.19239 | 1879 ft | 14 kts | 180° |
| 2026-05-06 11:34 | -35.30462 | 149.19239 | 1879 ft | 14 kts | 180° |
| 2026-05-06 11:34 | -35.30560 | 149.19239 | 1879 ft | 14 kts | 180° |
| 2026-05-06 11:35 | -35.30653 | 149.19236 | 1877 ft | 13 kts | 195° |
| 2026-05-06 11:35 | -35.30691 | 149.19187 | 1879 ft | 7 kts | 246° |
| 2026-05-06 11:35 | -35.30710 | 149.19137 | 1879 ft | 1 kts | 244° |
| 2026-05-06 11:35 | -35.30715 | 149.19126 | 1879 ft | 1 kts | 245° |
| 2026-05-06 11:36 | -35.30716 | 149.19123 | 1875 ft | 0 kts | 245° |